Time;durP1;ratioP1;P1;durP2;ratioP2;P2;SDS_P1;SDS_P2;PMS_P1;PMS_P2;Temp;Humidity;BMP_temperature;BMP_pressure;BME280_temperature;BME280_humidity;BME280_pressure;Samples;Min_cycle;Max_cycle;Signal;HPM_P1;HPM_P2
2023/09/10 00:01:37;;;;;;;4.95;4.20;;;26.60;54.00;;;;;;5023016;28;20207;-69
2023/09/10 00:04:03;;;;;;;4.30;3.90;;;26.60;54.00;;;;;;5022724;28;20496;-67
2023/09/10 00:06:29;;;;;;;4.78;4.05;;;26.60;54.00;;;;;;5024634;28;20105;-68
2023/09/10 00:08:54;;;;;;;4.20;3.80;;;26.60;54.00;;;;;;5023146;28;20409;-67
2023/09/10 00:11:20;;;;;;;4.03;3.63;;;26.60;54.00;;;;;;5023082;28;20026;-67
2023/09/10 00:13:46;;;;;;;4.38;3.80;;;26.60;54.00;;;;;;5020426;28;20040;-68
2023/09/10 00:16:11;;;;;;;4.47;4.00;;;26.60;54.10;;;;;;5021753;28;20545;-68
2023/09/10 00:18:39;;;;;;;4.70;4.20;;;26.60;54.10;;;;;;5035026;28;20020;-68
2023/09/10 00:21:05;;;;;;;4.68;3.90;;;26.60;54.10;;;;;;5022552;28;20029;-68
2023/09/10 00:23:52;;;;;;;4.38;3.97;;;26.50;54.10;;;;;;5023458;28;20040;-68
2023/09/10 00:26:18;;;;;;;4.82;4.30;;;26.50;54.10;;;;;;5021757;28;20021;-68
2023/09/10 00:28:44;;;;;;;4.47;4.07;;;26.50;54.10;;;;;;5022957;28;20083;-68
2023/09/10 00:31:10;;;;;;;4.40;4.00;;;26.50;54.10;;;;;;5022893;28;20099;-67
2023/09/10 00:33:35;;;;;;;4.25;3.85;;;26.50;54.10;;;;;;5022221;28;20418;-68
2023/09/10 00:36:01;;;;;;;4.30;3.90;;;26.50;54.10;;;;;;5002744;28;20021;-68
2023/09/10 00:38:26;;;;;;;5.15;3.92;;;26.50;54.20;;;;;;5022184;28;20033;-68
2023/09/10 00:40:52;;;;;;;5.15;3.97;;;26.50;54.20;;;;;;5022104;28;20026;-68
2023/09/10 00:43:18;;;;;;;4.22;3.83;;;26.50;54.20;;;;;;5020854;28;20957;-68
2023/09/10 00:45:43;;;;;;;4.43;4.03;;;26.50;54.20;;;;;;5019153;28;20037;-67
2023/09/10 00:48:09;;;;;;;4.18;3.65;;;26.40;54.10;;;;;;5019438;28;20026;-68
2023/09/10 00:50:35;;;;;;;4.70;3.90;;;26.40;54.10;;;;;;5021712;28;20034;-69
2023/09/10 00:53:01;;;;;;;4.38;3.90;;;26.40;54.20;;;;;;5032080;28;20095;-68
2023/09/10 00:55:29;;;;;;;4.28;3.83;;;26.40;54.20;;;;;;5022794;28;20030;-68
2023/09/10 00:57:55;;;;;;;4.18;3.78;;;26.40;54.20;;;;;;5021148;28;20017;-68
2023/09/10 01:00:21;;;;;;;4.78;3.67;;;26.40;54.20;;;;;;5020063;28;20038;-68
2023/09/10 01:02:49;;;;;;;4.10;3.70;;;26.40;54.20;;;;;;5021439;28;20482;-68
2023/09/10 01:05:17;;;;;;;4.15;3.60;;;26.40;54.20;;;;;;5020955;28;20025;-68
2023/09/10 01:07:44;;;;;;;4.70;4.20;;;26.40;54.30;;;;;;5021319;28;20431;-68
2023/09/10 01:10:09;;;;;;;4.28;3.88;;;26.40;54.30;;;;;;5020362;28;20032;-68
2023/09/10 01:13:05;;;;;;;4.05;3.65;;;26.40;54.30;;;;;;5020201;28;20151;-68
2023/09/10 01:15:38;;;;;;;4.60;4.00;;;26.40;54.30;;;;;;5020264;28;20895;-68
2023/09/10 01:18:32;;;;;;;4.03;3.60;;;26.40;54.30;;;;;;5020185;28;20033;-68
2023/09/10 01:21:24;;;;;;;4.13;3.72;;;26.40;54.30;;;;;;5000085;28;20073;-68
2023/09/10 01:23:57;;;;;;;4.30;3.70;;;26.30;54.30;;;;;;5020089;28;20021;-68
2023/09/10 01:26:23;;;;;;;4.18;3.55;;;26.30;54.30;;;;;;5019885;28;20052;-67
2023/09/10 01:28:49;;;;;;;3.92;3.50;;;26.30;54.30;;;;;;5019965;28;20029;-68
2023/09/10 01:31:14;;;;;;;4.10;3.70;;;26.30;54.30;;;;;;5022565;28;20048;-68
2023/09/10 01:33:51;;;;;;;4.10;3.70;;;26.30;54.30;;;;;;5020091;28;20041;-68
2023/09/10 01:36:25;;;;;;;4.25;3.67;;;26.30;54.80;;;;;;5018715;28;20032;-68
2023/09/10 01:39:05;;;;;;;3.95;3.55;;;26.30;54.30;;;;;;5021230;28;20029;-67
2023/09/10 01:41:32;;;;;;;3.60;3.30;;;26.30;54.40;;;;;;5017879;28;20548;-63
2023/09/10 01:43:59;;;;;;;3.80;3.40;;;26.30;54.40;;;;;;5020663;28;20026;-62
2023/09/10 01:46:26;;;;;;;4.00;3.60;;;26.30;54.40;;;;;;5020712;28;20144;-63
2023/09/10 01:48:52;;;;;;;4.18;3.70;;;26.30;54.40;;;;;;5021624;28;20074;-62
2023/09/10 01:51:19;;;;;;;4.15;3.50;;;26.30;54.40;;;;;;5019821;28;20040;-68
2023/09/10 01:53:46;;;;;;;3.85;3.30;;;26.30;54.40;;;;;;5021269;28;20022;-68
2023/09/10 01:56:11;;;;;;;3.90;3.47;;;26.30;54.40;;;;;;5018402;28;20077;-68
2023/09/10 01:58:38;;;;;;;4.05;3.47;;;26.20;54.40;;;;;;5015291;28;20342;-67
2023/09/10 02:01:06;;;;;;;3.70;3.28;;;26.30;54.40;;;;;;5021794;28;20468;-65
2023/09/10 02:03:31;;;;;;;3.90;3.50;;;26.20;54.40;;;;;;5020571;28;20041;-66
2023/09/10 02:05:58;;;;;;;4.38;3.58;;;26.20;54.40;;;;;;5019534;28;20759;-65
2023/09/10 02:08:24;;;;;;;3.55;3.25;;;26.20;54.40;;;;;;5020484;28;20030;-65
2023/09/10 02:10:50;;;;;;;3.78;3.30;;;26.20;54.40;;;;;;5019306;28;20523;-65
2023/09/10 02:13:15;;;;;;;4.15;3.40;;;26.20;54.40;;;;;;5018777;28;20101;-66
2023/09/10 02:15:41;;;;;;;3.78;3.38;;;26.20;54.40;;;;;;5020280;28;20469;-65
2023/09/10 02:18:07;;;;;;;3.85;3.40;;;26.20;54.40;;;;;;5017945;28;20037;-65
2023/09/10 02:20:36;;;;;;;4.03;3.40;;;26.20;54.40;;;;;;5020079;28;20037;-66
2023/09/10 02:23:03;;;;;;;4.10;3.70;;;26.20;54.50;;;;;;5020560;28;20025;-65
2023/09/10 02:25:28;;;;;;;3.90;3.33;;;26.20;54.40;;;;;;5017246;28;20116;-65
2023/09/10 02:27:54;;;;;;;4.30;3.35;;;26.20;54.50;;;;;;5021524;28;20125;-65
2023/09/10 02:30:20;;;;;;;3.53;3.20;;;26.20;54.50;;;;;;5017856;28;20026;-65
2023/09/10 02:32:46;;;;;;;3.67;3.28;;;26.10;54.40;;;;;;5018576;28;20462;-65
2023/09/10 02:35:11;;;;;;;3.92;3.53;;;26.10;54.40;;;;;;5020039;28;20200;-65
2023/09/10 02:37:37;;;;;;;3.53;2.90;;;26.10;54.40;;;;;;5020774;28;20033;-65
2023/09/10 02:40:06;;;;;;;3.88;3.47;;;26.20;54.50;;;;;;5017827;28;20022;-64
2023/09/10 02:42:31;;;;;;;;;;;26.10;54.40;;;;;;5018522;28;20377;-65
2023/09/10 02:44:58;;;;;;;4.00;3.53;;;26.10;54.70;;;;;;5019639;28;19919;-65
2023/09/10 02:47:24;;;;;;;3.85;3.42;;;26.10;54.40;;;;;;5018555;28;20489;-65
2023/09/10 02:49:50;;;;;;;3.67;3.20;;;26.10;54.40;;;;;;5019025;28;20018;-65
2023/09/10 02:52:15;;;;;;;3.28;2.95;;;26.10;54.40;;;;;;5018182;28;20029;-65
2023/09/10 02:54:41;;;;;;;3.47;3.17;;;26.10;54.40;;;;;;5017291;28;20056;-65
2023/09/10 02:57:07;;;;;;;3.80;3.15;;;26.10;54.50;;;;;;5018104;28;20034;-66
2023/09/10 02:59:32;;;;;;;4.55;3.30;;;26.00;54.40;;;;;;5030783;28;20108;-68
2023/09/10 03:01:58;;;;;;;3.47;3.17;;;26.10;54.50;;;;;;5020593;28;20560;-68
2023/09/10 03:04:24;;;;;;;3.33;3.03;;;26.00;54.40;;;;;;5017906;28;20029;-68
2023/09/10 03:06:51;;;;;;;3.70;3.30;;;26.10;54.50;;;;;;5018603;28;20046;-68
2023/09/10 03:09:17;;;;;;;3.70;3.30;;;26.00;54.40;;;;;;5022290;28;20075;-65
2023/09/10 03:11:44;;;;;;;3.55;3.13;;;26.00;54.40;;;;;;5023373;28;20025;-65
2023/09/10 03:14:10;;;;;;;3.60;3.30;;;26.00;54.50;;;;;;5020700;28;20018;-65
2023/09/10 03:16:38;;;;;;;4.03;3.22;;;26.00;54.40;;;;;;5023185;28;20040;-65
2023/09/10 03:19:04;;;;;;;3.27;2.90;;;26.00;54.40;;;;;;5023203;28;20032;-69
2023/09/10 03:21:30;;;;;;;3.42;3.08;;;26.00;54.50;;;;;;5023260;28;20030;-68
2023/09/10 03:23:56;;;;;;;3.38;3.08;;;26.00;54.50;;;;;;5023963;28;20057;-68
2023/09/10 03:26:22;;;;;;;3.55;3.05;;;26.00;54.50;;;;;;5024745;28;20033;-68
2023/09/10 03:28:48;;;;;;;3.72;3.05;;;26.00;54.50;;;;;;5022089;28;20030;-68
2023/09/10 03:31:14;;;;;;;3.50;2.97;;;26.00;54.50;;;;;;5019895;28;20801;-68
2023/09/10 03:33:43;;;;;;;3.63;3.22;;;26.00;54.50;;;;;;5021725;28;20907;-68
2023/09/10 03:36:09;;;;;;;3.60;3.20;;;26.00;54.50;;;;;;5024051;28;20038;-67
2023/09/10 03:38:35;;;;;;;3.63;3.17;;;26.00;54.50;;;;;;5022060;28;20045;-68
2023/09/10 03:41:00;;;;;;;3.28;2.97;;;26.00;54.50;;;;;;5023703;28;20025;-69
2023/09/10 03:43:26;;;;;;;3.33;3.03;;;26.00;54.50;;;;;;5021041;28;20036;-67
2023/09/10 03:45:52;;;;;;;3.58;3.28;;;25.90;54.50;;;;;;5022980;28;20022;-67
2023/09/10 03:48:17;;;;;;;3.85;3.45;;;25.90;54.50;;;;;;5021239;28;20101;-68
2023/09/10 03:50:43;;;;;;;3.20;2.85;;;25.90;54.50;;;;;;5023698;28;20031;-68
2023/09/10 03:53:08;;;;;;;3.50;3.05;;;25.90;54.50;;;;;;5020372;28;20397;-67
2023/09/10 03:55:34;;;;;;;3.90;3.25;;;25.90;54.50;;;;;;5025309;28;20054;-67
2023/09/10 03:57:59;;;;;;;3.60;3.10;;;25.90;54.50;;;;;;5023663;28;20026;-68
2023/09/10 04:00:25;;;;;;;3.67;3.08;;;25.90;54.50;;;;;;5017793;28;20033;-68
2023/09/10 04:02:51;;;;;;;3.80;3.40;;;25.90;54.50;;;;;;5023053;28;20029;-68
2023/09/10 04:05:17;;;;;;;4.40;3.25;;;25.90;54.50;;;;;;5024029;28;20037;-68
2023/09/10 04:07:43;;;;;;;3.45;3.00;;;25.90;54.50;;;;;;5015408;28;20025;-67
2023/09/10 04:10:09;;;;;;;3.83;3.35;;;25.90;54.50;;;;;;5019207;28;20129;-66
2023/09/10 04:12:36;;;;;;;3.30;2.83;;;25.90;54.50;;;;;;5019342;28;20022;-65
2023/09/10 04:15:03;;;;;;;3.40;2.97;;;25.90;54.50;;;;;;5013672;28;20036;-66
2023/09/10 04:17:29;;;;;;;3.33;3.03;;;25.90;54.60;;;;;;5022065;28;20120;-65
2023/09/10 04:19:58;;;;;;;3.75;3.20;;;25.90;54.50;;;;;;5020646;28;20428;-64
2023/09/10 04:22:24;;;;;;;3.38;2.83;;;25.90;54.50;;;;;;5019933;28;20535;-63
2023/09/10 04:24:50;;;;;;;3.22;2.88;;;25.80;54.50;;;;;;5021747;28;20030;-63
2023/09/10 04:27:16;;;;;;;3.28;2.92;;;25.90;54.60;;;;;;5019754;28;20029;-62
2023/09/10 04:29:41;;;;;;;3.20;2.85;;;25.90;54.60;;;;;;5020660;28;20034;-62
2023/09/10 04:32:07;;;;;;;3.60;3.20;;;25.90;54.60;;;;;;5020824;28;20030;-64
2023/09/10 04:34:33;;;;;;;3.30;3.00;;;25.90;54.60;;;;;;5021751;28;20567;-62
2023/09/10 04:36:58;;;;;;;3.28;2.97;;;25.80;54.50;;;;;;5020634;28;20036;-62
2023/09/10 04:39:26;;;;;;;3.67;3.25;;;25.90;55.10;;;;;;5021357;28;20033;-62
2023/09/10 04:41:51;;;;;;;3.63;3.30;;;25.80;54.50;;;;;;5022478;28;20548;-61
2023/09/10 04:44:17;;;;;;;3.30;2.97;;;25.80;54.50;;;;;;5033746;28;20072;-64
2023/09/10 04:46:43;;;;;;;3.40;2.90;;;25.80;54.50;;;;;;5021785;28;20025;-63
2023/09/10 04:49:08;;;;;;;3.80;3.22;;;25.80;54.50;;;;;;5021878;28;20405;-62
2023/09/10 04:51:34;;;;;;;3.80;3.33;;;25.80;54.50;;;;;;5019292;28;20026;-64
2023/09/10 04:53:59;;;;;;;3.20;2.80;;;25.80;54.50;;;;;;5019814;28;20551;-62
2023/09/10 04:56:25;;;;;;;3.28;2.97;;;25.80;54.50;;;;;;5020739;28;20048;-64
2023/09/10 04:58:51;;;;;;;3.25;2.95;;;25.80;54.50;;;;;;5020995;28;20038;-63
2023/09/10 05:01:17;;;;;;;3.30;3.00;;;25.80;54.50;;;;;;5022149;28;20033;-62
2023/09/10 05:03:42;;;;;;;3.10;2.60;;;25.80;54.60;;;;;;5018250;28;20026;-62
2023/09/10 05:06:09;;;;;;;3.00;2.70;;;25.80;54.60;;;;;;5021195;28;20494;-61
2023/09/10 05:08:34;;;;;;;3.20;2.90;;;25.80;54.50;;;;;;5022408;28;20393;-62
2023/09/10 05:11:00;;;;;;;3.25;2.95;;;25.80;54.60;;;;;;5020219;28;20029;-61
2023/09/10 05:13:26;;;;;;;3.75;3.10;;;25.80;54.60;;;;;;5020287;28;20029;-64
2023/09/10 05:15:57;;;;;;;3.13;2.83;;;25.80;54.60;;;;;;5019514;28;20132;-62
2023/09/10 05:18:24;;;;;;;3.25;2.90;;;25.80;54.60;;;;;;5021339;28;20466;-62
2023/09/10 05:20:50;;;;;;;4.03;2.83;;;25.80;54.60;;;;;;5022102;28;20029;-67
2023/09/10 05:23:16;;;;;;;3.38;2.90;;;25.80;54.60;;;;;;5020304;28;20117;-67
2023/09/10 05:25:41;;;;;;;3.45;2.95;;;25.80;54.60;;;;;;5020478;28;20451;-67
2023/09/10 05:28:07;;;;;;;3.63;3.05;;;25.80;54.60;;;;;;5020433;28;20125;-67
2023/09/10 05:30:37;;;;;;;3.40;3.10;;;25.80;54.60;;;;;;5018869;28;20369;-67
2023/09/10 05:33:03;;;;;;;3.13;2.75;;;25.80;54.50;;;;;;5021071;28;20077;-67
2023/09/10 05:35:28;;;;;;;3.10;2.80;;;25.80;54.50;;;;;;5019311;28;20033;-67
2023/09/10 05:37:54;;;;;;;3.10;2.80;;;25.80;54.60;;;;;;5022612;28;20037;-68
2023/09/10 05:40:20;;;;;;;3.30;2.63;;;25.70;54.50;;;;;;5021120;28;20029;-67
2023/09/10 05:42:45;;;;;;;3.17;2.88;;;25.80;54.50;;;;;;5021273;28;20034;-67
2023/09/10 05:45:11;;;;;;;2.97;2.67;;;25.80;54.50;;;;;;5020191;28;20172;-66
2023/09/10 05:47:37;;;;;;;3.00;2.70;;;25.70;54.50;;;;;;5019342;28;20560;-67
2023/09/10 05:50:04;;;;;;;3.13;2.70;;;25.70;54.50;;;;;;5019147;28;20028;-61
2023/09/10 05:52:30;;;;;;;3.20;2.80;;;25.70;54.50;;;;;;5017966;28;20029;-61
2023/09/10 05:54:55;;;;;;;3.72;3.20;;;25.70;54.50;;;;;;5019438;28;20075;-62
2023/09/10 05:57:21;;;;;;;3.22;2.60;;;25.70;54.50;;;;;;5019409;28;20473;-64
2023/09/10 05:59:47;;;;;;;3.20;2.90;;;25.70;54.50;;;;;;5019873;28;20037;-63
2023/09/10 06:02:12;;;;;;;3.35;2.90;;;25.70;54.40;;;;;;5020695;28;20491;-61
2023/09/10 06:04:38;;;;;;;3.30;2.90;;;25.70;54.50;;;;;;5019924;28;20033;-61
2023/09/10 06:07:03;;;;;;;3.30;2.97;;;25.70;54.50;;;;;;5018456;28;20588;-62
2023/09/10 06:09:30;;;;;;;3.28;2.97;;;25.70;54.50;;;;;;5019635;28;20047;-61
2023/09/10 06:11:57;;;;;;;3.13;2.80;;;25.70;54.50;;;;;;5019578;28;20469;-62
2023/09/10 06:14:22;;;;;;;2.88;2.58;;;25.70;54.50;;;;;;5020303;28;20519;-61
2023/09/10 06:16:48;;;;;;;3.17;2.70;;;25.70;54.50;;;;;;5008972;28;20029;-62
2023/09/10 06:19:14;;;;;;;3.70;3.20;;;25.70;54.50;;;;;;5020550;28;20065;-62
2023/09/10 06:21:40;;;;;;;3.22;2.70;;;25.70;54.50;;;;;;5021058;28;20492;-60
2023/09/10 06:24:06;;;;;;;3.25;2.85;;;25.60;54.40;;;;;;5020682;28;20067;-62
2023/09/10 06:26:32;;;;;;;3.13;2.80;;;25.60;54.40;;;;;;5018570;28;20034;-61
2023/09/10 06:28:58;;;;;;;3.78;3.35;;;25.70;54.50;;;;;;5017926;28;20048;-60
2023/09/10 06:31:23;;;;;;;3.40;2.92;;;25.70;54.50;;;;;;5019795;28;20037;-61
2023/09/10 06:33:49;;;;;;;3.55;3.03;;;25.70;54.50;;;;;;5020494;28;20477;-62
2023/09/10 06:36:16;;;;;;;3.50;3.08;;;25.60;54.50;;;;;;5020222;28;20022;-61
2023/09/10 06:38:47;;;;;;;3.05;2.70;;;25.60;54.50;;;;;;5018431;28;20465;-62
2023/09/10 06:41:17;;;;;;;3.28;2.97;;;25.60;54.50;;;;;;5018088;28;20013;-67
2023/09/10 06:43:43;;;;;;;3.50;3.20;;;25.60;54.50;;;;;;5019545;28;20038;-66
2023/09/10 06:46:08;;;;;;;3.72;3.33;;;25.60;54.50;;;;;;5022823;28;20033;-67
2023/09/10 06:48:34;;;;;;;3.53;2.92;;;25.60;54.50;;;;;;5022997;28;20489;-67
2023/09/10 06:51:01;;;;;;;3.40;3.03;;;25.60;54.50;;;;;;5025449;28;20331;-67
2023/09/10 06:53:30;;;;;;;3.50;2.90;;;25.60;54.50;;;;;;5022669;28;20473;-67
2023/09/10 06:55:57;;;;;;;3.78;3.13;;;25.60;54.50;;;;;;5024557;28;20092;-66
2023/09/10 06:58:23;;;;;;;3.83;3.00;;;25.60;54.50;;;;;;5021007;28;20100;-67
2023/09/10 07:00:48;;;;;;;3.33;3.03;;;25.60;54.80;;;;;;5025103;28;20108;-67
2023/09/10 07:03:14;;;;;;;3.42;2.97;;;25.60;54.50;;;;;;5022358;28;20053;-66
2023/09/10 07:05:41;;;;;;;3.28;2.88;;;25.60;54.60;;;;;;5023217;28;20091;-67
2023/09/10 07:08:08;;;;;;;3.13;2.83;;;25.60;54.60;;;;;;5024339;28;20125;-67
2023/09/10 07:10:34;;;;;;;3.30;2.90;;;25.60;54.60;;;;;;5022624;28;20541;-67
2023/09/10 07:13:05;;;;;;;3.40;2.97;;;25.60;54.60;;;;;;5023450;28;20044;-67
2023/09/10 07:15:32;;;;;;;3.05;2.70;;;25.60;54.60;;;;;;5021297;28;20037;-67
2023/09/10 07:17:57;;;;;;;3.13;2.83;;;25.60;55.10;;;;;;5023291;28;20075;-66
2023/09/10 07:20:23;;;;;;;3.40;2.88;;;25.60;54.60;;;;;;5023969;28;20033;-67
2023/09/10 07:22:48;;;;;;;3.15;2.85;;;25.60;54.60;;;;;;5022870;28;20033;-67
2023/09/10 07:25:14;;;;;;;3.10;2.80;;;25.50;54.50;;;;;;5021138;28;20116;-67
2023/09/10 07:27:39;;;;;;;3.20;2.80;;;25.50;54.60;;;;;;5020872;28;20033;-67
2023/09/10 07:30:06;;;;;;;3.42;3.10;;;25.60;54.60;;;;;;5022642;28;20069;-67
2023/09/10 07:32:31;;;;;;;3.05;2.75;;;25.60;54.70;;;;;;5022718;28;20030;-67
2023/09/10 07:34:57;;;;;;;3.33;3.03;;;25.60;54.70;;;;;;5023307;28;20526;-69
2023/09/10 07:37:23;;;;;;;3.10;2.80;;;25.50;54.60;;;;;;5023671;28;20075;-67
2023/09/10 07:39:48;;;;;;;3.10;2.80;;;25.50;54.60;;;;;;5022736;28;20112;-67
2023/09/10 07:42:14;;;;;;;3.00;2.70;;;25.50;54.60;;;;;;5023914;28;20778;-67
2023/09/10 07:44:41;;;;;;;3.10;2.70;;;25.50;54.70;;;;;;5020345;28;20021;-68
2023/09/10 07:47:12;;;;;;;3.00;2.70;;;25.50;54.70;;;;;;5022259;28;20560;-67
2023/09/10 07:49:38;;;;;;;3.33;2.80;;;25.50;54.70;;;;;;5021451;28;20030;-62
2023/09/10 07:52:04;;;;;;;2.95;2.58;;;25.50;54.80;;;;;;5015048;28;20612;-62
2023/09/10 07:54:31;;;;;;;3.20;2.78;;;25.50;54.70;;;;;;5023662;28;20095;-61
2023/09/10 07:56:57;;;;;;;3.35;2.85;;;25.50;54.80;;;;;;5021637;28;20030;-61
2023/09/10 07:59:23;;;;;;;3.42;2.85;;;25.50;54.70;;;;;;5021785;28;20043;-62
2023/09/10 08:01:48;;;;;;;3.30;2.90;;;25.50;54.80;;;;;;5023967;28;20106;-64
2023/09/10 08:04:15;;;;;;;3.63;2.80;;;25.50;54.80;;;;;;5022560;28;20030;-63
2023/09/10 08:06:41;;;;;;;3.67;2.83;;;25.50;54.80;;;;;;5020700;28;20026;-63
2023/09/10 08:09:06;;;;;;;3.30;2.83;;;25.50;54.80;;;;;;5022930;28;20040;-69
2023/09/10 08:11:32;;;;;;;3.00;2.60;;;25.50;54.80;;;;;;5020203;28;20033;-66
2023/09/10 08:13:58;;;;;;;3.13;2.53;;;25.50;54.80;;;;;;5021864;28;20022;-70
2023/09/10 08:16:23;;;;;;;2.90;2.53;;;25.50;54.80;;;;;;5020192;28;20627;-69
2023/09/10 08:18:49;;;;;;;2.90;2.50;;;25.50;54.80;;;;;;5021333;28;20040;-69
2023/09/10 08:21:15;;;;;;;3.00;2.70;;;25.50;54.80;;;;;;5022655;28;20092;-69
2023/09/10 08:23:42;;;;;;;3.10;2.80;;;25.50;54.80;;;;;;5020063;28;20041;-69
2023/09/10 08:26:08;;;;;;;3.10;2.60;;;25.50;54.80;;;;;;5020791;28;20022;-69
2023/09/10 08:28:33;;;;;;;3.03;2.53;;;25.50;54.80;;;;;;5021590;28;20413;-69
2023/09/10 08:30:59;;;;;;;3.03;2.72;;;25.50;54.80;;;;;;5021712;28;20029;-68
2023/09/10 08:33:25;;;;;;;2.90;2.35;;;25.50;54.80;;;;;;5021356;28;20508;-69
2023/09/10 08:35:52;;;;;;;3.15;2.70;;;25.50;54.80;;;;;;5013371;28;20117;-69
2023/09/10 08:38:18;;;;;;;3.22;2.85;;;25.50;54.80;;;;;;5021181;28;20120;-69
2023/09/10 08:41:03;;;;;;;3.47;2.90;;;25.40;54.80;;;;;;5011940;28;20057;-69
2023/09/10 08:43:57;;;;;;;3.40;2.90;;;25.50;54.90;;;;;;5021712;28;20482;-69
2023/09/10 08:46:30;;;;;;;3.10;2.50;;;25.50;54.90;;;;;;5021868;28;20053;-69
2023/09/10 08:48:56;;;;;;;3.17;2.63;;;25.50;54.90;;;;;;5020443;28;20025;-69
2023/09/10 08:51:23;;;;;;;3.20;2.78;;;25.50;54.80;;;;;;5021579;28;20026;-66
2023/09/10 08:53:50;;;;;;;2.90;2.53;;;25.50;54.90;;;;;;5021523;28;20112;-66
2023/09/10 08:56:16;;;;;;;3.05;2.67;;;25.50;54.90;;;;;;5020704;28;20554;-65
2023/09/10 08:58:43;;;;;;;2.92;2.58;;;25.50;54.90;;;;;;5021451;28;20113;-65
2023/09/10 09:01:10;;;;;;;3.22;2.50;;;25.50;54.90;;;;;;5017463;28;20037;-66
2023/09/10 09:03:36;;;;;;;2.65;2.45;;;25.50;54.90;;;;;;5020238;28;20057;-65
2023/09/10 09:06:03;;;;;;;2.95;2.65;;;25.50;54.90;;;;;;5020790;28;20065;-65
2023/09/10 09:08:31;;;;;;;2.95;2.65;;;25.50;54.90;;;;;;5025188;28;20586;-66
2023/09/10 09:11:05;;;;;;;2.65;2.33;;;25.50;54.90;;;;;;5020588;28;20507;-66
2023/09/10 09:13:36;;;;;;;2.72;2.40;;;25.50;54.90;;;;;;5020123;28;20436;-66
2023/09/10 09:16:04;;;;;;;3.17;2.42;;;25.50;54.90;;;;;;5022039;28;20441;-65
2023/09/10 09:18:30;;;;;;;3.05;2.70;;;25.50;54.90;;;;;;5017873;28;20029;-65
2023/09/10 09:21:01;;;;;;;3.25;2.80;;;25.40;54.90;;;;;;5020813;28;20029;-68
2023/09/10 09:23:31;;;;;;;3.10;2.80;;;25.40;54.90;;;;;;5020116;28;20517;-69
2023/09/10 09:25:57;;;;;;;2.95;2.45;;;25.40;54.90;;;;;;5019174;28;20087;-69
2023/09/10 09:28:27;;;;;;;2.88;2.58;;;25.40;54.90;;;;;;5016741;28;20034;-68
2023/09/10 09:30:53;;;;;;;3.10;2.80;;;25.50;55.00;;;;;;5021245;28;20370;-68
2023/09/10 09:33:18;;;;;;;3.08;2.70;;;25.40;54.90;;;;;;5020035;28;20637;-68
2023/09/10 09:35:46;;;;;;;2.95;2.63;;;25.40;54.90;;;;;;5021106;28;20025;-69
2023/09/10 09:38:15;;;;;;;2.80;2.50;;;25.40;54.90;;;;;;5019217;28;20095;-68
2023/09/10 09:40:41;;;;;;;3.00;2.70;;;25.40;54.90;;;;;;5021107;28;20034;-69
2023/09/10 09:43:08;;;;;;;3.72;3.00;;;25.40;55.00;;;;;;5021526;28;20174;-68
2023/09/10 09:45:37;;;;;;;2.72;2.40;;;25.40;55.00;;;;;;5020601;28;20029;-69
2023/09/10 09:48:04;;;;;;;2.75;2.33;;;25.40;55.00;;;;;;5020722;28;20041;-69
2023/09/10 09:50:30;;;;;;;3.10;2.75;;;25.40;55.00;;;;;;5022185;28;20029;-68
2023/09/10 09:52:56;;;;;;;2.92;2.63;;;25.40;55.00;;;;;;5018091;28;20450;-69
2023/09/10 09:55:22;;;;;;;3.03;2.67;;;25.40;55.00;;;;;;5020842;28;20507;-70
2023/09/10 09:57:49;;;;;;;3.15;2.70;;;25.40;55.00;;;;;;5020573;28;20026;-69
2023/09/10 10:00:15;;;;;;;3.10;2.63;;;25.40;55.00;;;;;;5018093;28;20095;-65
2023/09/10 10:02:41;;;;;;;3.10;2.80;;;25.40;55.00;;;;;;5018455;28;20041;-64
2023/09/10 10:05:08;;;;;;;3.20;2.60;;;25.40;55.00;;;;;;5020336;28;20571;-63
2023/09/10 10:07:37;;;;;;;2.95;2.60;;;25.40;55.00;;;;;;5019046;28;20084;-62
2023/09/10 10:10:07;;;;;;;3.17;2.85;;;25.40;55.00;;;;;;5019694;28;20029;-63
2023/09/10 10:12:34;;;;;;;3.03;2.58;;;25.40;55.00;;;;;;5020491;28;20163;-65
2023/09/10 10:15:00;;;;;;;2.90;2.60;;;25.40;55.00;;;;;;5020030;28;20033;-63
2023/09/10 10:17:26;;;;;;;2.88;2.58;;;25.40;55.00;;;;;;5020901;28;20022;-62
2023/09/10 10:19:53;;;;;;;2.88;2.53;;;25.40;55.00;;;;;;5018010;28;20048;-63
2023/09/10 10:22:19;;;;;;;2.97;2.60;;;25.40;55.00;;;;;;5017511;28;20030;-63
2023/09/10 10:24:45;;;;;;;3.10;2.80;;;25.40;55.00;;;;;;5020540;28;20496;-63
2023/09/10 10:27:13;;;;;;;2.97;2.67;;;25.50;55.10;;;;;;5020185;28;20026;-64
2023/09/10 10:29:39;;;;;;;3.30;2.90;;;25.50;55.10;;;;;;5019645;28;20030;-65
2023/09/10 10:32:24;;;;;;;2.72;2.30;;;25.50;55.10;;;;;;5020297;28;20511;-66
2023/09/10 10:34:56;;;;;;;3.00;2.63;;;25.40;55.10;;;;;;5019060;28;20030;-65
2023/09/10 10:37:40;;;;;;;2.90;2.40;;;25.40;55.10;;;;;;5018351;28;20386;-65
2023/09/10 10:40:23;;;;;;;2.90;2.50;;;25.40;55.10;;;;;;5020082;28;20108;-65
2023/09/10 10:43:15;;;;;;;3.03;2.50;;;25.40;55.10;;;;;;5019248;28;20493;-66
2023/09/10 10:45:43;;;;;;;2.60;2.30;;;25.40;55.10;;;;;;5012790;28;20037;-66
2023/09/10 10:48:15;;;;;;;2.60;2.20;;;25.40;55.10;;;;;;5020899;28;20342;-66
2023/09/10 10:50:44;;;;;;;3.00;2.58;;;25.40;55.10;;;;;;5018406;28;20495;-65
2023/09/10 10:53:17;;;;;;;2.92;2.53;;;25.40;55.10;;;;;;5019740;28;20065;-65
2023/09/10 10:55:43;;;;;;;3.40;2.80;;;25.40;55.10;;;;;;5018732;28;20476;-66
2023/09/10 10:58:09;;;;;;;3.50;2.55;;;25.50;55.10;;;;;;5019864;28;20083;-66
2023/09/10 11:00:35;;;;;;;2.80;2.40;;;25.50;55.20;;;;;;5015924;28;20034;-65
2023/09/10 11:03:14;;;;;;;3.10;2.67;;;25.50;55.20;;;;;;5018080;28;20061;-66
2023/09/10 11:06:04;;;;;;;3.05;2.47;;;25.40;55.10;;;;;;5018988;28;20030;-66
2023/09/10 11:08:32;;;;;;;2.95;2.50;;;25.50;55.20;;;;;;5018328;28;20025;-66
2023/09/10 11:10:58;;;;;;;3.17;2.60;;;25.50;55.20;;;;;;5018462;28;20033;-66
2023/09/10 11:13:24;;;;;;;3.10;2.80;;;25.50;55.20;;;;;;5017612;28;20026;-65
2023/09/10 11:16:04;;;;;;;2.88;2.45;;;25.50;55.20;;;;;;5017651;28;20041;-66
2023/09/10 11:18:36;;;;;;;2.63;2.30;;;25.50;55.20;;;;;;5017284;28;20022;-66
2023/09/10 11:21:06;;;;;;;3.00;2.47;;;25.50;55.20;;;;;;5017935;28;20040;-66
2023/09/10 11:23:36;;;;;;;2.70;2.22;;;25.50;55.20;;;;;;5019946;28;20104;-66
2023/09/10 11:26:13;;;;;;;3.00;2.70;;;25.50;55.20;;;;;;5018190;28;20384;-66
2023/09/10 11:28:42;;;;;;;2.72;2.35;;;25.50;55.30;;;;;;5034692;28;20033;-66
2023/09/10 11:31:32;;;;;;;3.03;2.50;;;25.40;55.20;;;;;;5022705;28;20034;-65
2023/09/10 11:34:18;;;;;;;2.80;2.40;;;25.50;55.20;;;;;;5020869;28;20029;-66
2023/09/10 11:36:49;;;;;;;2.63;2.30;;;25.40;55.20;;;;;;5023240;28;20025;-66
2023/09/10 11:39:16;;;;;;;2.60;2.22;;;25.50;55.30;;;;;;5021703;28;20717;-65
2023/09/10 11:41:44;;;;;;;2.97;2.55;;;25.50;55.20;;;;;;5022602;28;20067;-69
2023/09/10 11:44:10;;;;;;;2.72;2.33;;;25.50;55.30;;;;;;5023229;28;20557;-69
2023/09/10 11:46:36;;;;;;;2.83;2.30;;;25.50;55.30;;;;;;5021179;28;20030;-69
2023/09/10 11:49:02;;;;;;;2.90;2.38;;;25.50;55.30;;;;;;5022953;28;20033;-69
2023/09/10 11:51:28;;;;;;;2.95;2.65;;;25.50;55.30;;;;;;5021713;28;20021;-69
2023/09/10 11:53:54;;;;;;;2.80;2.42;;;25.50;55.30;;;;;;5023218;28;20022;-69
2023/09/10 11:56:19;;;;;;;2.65;2.30;;;25.50;55.30;;;;;;5023637;28;20032;-69
2023/09/10 11:58:45;;;;;;;2.85;2.55;;;25.50;55.30;;;;;;5021741;28;20369;-68
2023/09/10 12:01:11;;;;;;;2.50;2.20;;;25.50;55.40;;;;;;5020310;28;20441;-69
2023/09/10 12:03:41;;;;;;;2.80;2.40;;;25.50;55.30;;;;;;5022202;28;20017;-69
2023/09/10 12:06:07;;;;;;;2.90;2.40;;;25.50;55.30;;;;;;5022340;28;20163;-69
2023/09/10 12:08:33;;;;;;;3.15;2.42;;;25.50;55.40;;;;;;5020641;28;20161;-69
2023/09/10 12:11:03;;;;;;;2.72;2.33;;;25.50;55.40;;;;;;5022081;28;20105;-64
2023/09/10 12:13:29;;;;;;;2.97;2.45;;;25.50;55.40;;;;;;5033819;28;20045;-63
2023/09/10 12:15:55;;;;;;;3.10;2.47;;;25.50;55.40;;;;;;5022136;28;20167;-63
2023/09/10 12:18:22;;;;;;;2.60;2.38;;;25.50;55.40;;;;;;5020987;28;20133;-64
2023/09/10 12:20:48;;;;;;;2.80;2.30;;;25.50;55.40;;;;;;5021805;28;20064;-64
2023/09/10 12:23:14;;;;;;;3.17;2.50;;;25.50;55.40;;;;;;5021512;28;20033;-64
2023/09/10 12:25:40;;;;;;;2.70;2.20;;;25.50;55.40;;;;;;5022865;28;20048;-62
2023/09/10 12:28:09;;;;;;;2.92;2.50;;;25.50;55.40;;;;;;5020910;28;20038;-63
2023/09/10 12:30:36;;;;;;;2.60;2.20;;;25.50;55.40;;;;;;5022417;28;20034;-69
2023/09/10 12:33:02;;;;;;;3.03;2.60;;;25.60;55.50;;;;;;5019619;28;20033;-70
2023/09/10 12:35:29;;;;;;;2.60;2.20;;;25.60;55.50;;;;;;5022224;28;20511;-69
2023/09/10 12:37:55;;;;;;;2.60;2.30;;;25.60;55.50;;;;;;5021100;28;20398;-69
2023/09/10 12:40:22;;;;;;;2.80;2.45;;;25.50;55.50;;;;;;5021572;28;20040;-69
2023/09/10 12:42:50;;;;;;;2.80;2.47;;;25.50;55.50;;;;;;5020977;28;20100;-69
2023/09/10 12:45:16;;;;;;;2.72;2.28;;;25.60;55.60;;;;;;5021947;28;20553;-69
2023/09/10 12:47:43;;;;;;;2.95;2.55;;;25.60;55.60;;;;;;5020069;28;20492;-69
2023/09/10 12:50:10;;;;;;;2.58;2.35;;;25.60;55.50;;;;;;5022099;28;20113;-69